sensor_id;sensor_type;location;lat;lon;timestamp;pressure;altitude;pressure_sealevel;temperature;humidity
45323;BME280;31382;50.200;8.674;2023-04-21T00:04:42;100063.91;;;9.84;75.44
45323;BME280;31382;50.200;8.674;2023-04-21T00:09:46;100073.31;;;9.80;75.60
45323;BME280;31382;50.200;8.674;2023-04-21T00:14:47;100063.97;;;9.67;76.25
45323;BME280;31382;50.200;8.674;2023-04-21T00:19:48;100058.59;;;9.76;75.99
45323;BME280;31382;50.200;8.674;2023-04-21T00:24:50;100062.09;;;9.76;76.04
45323;BME280;31382;50.200;8.674;2023-04-21T00:29:52;100067.94;;;9.80;75.92
45323;BME280;31382;50.200;8.674;2023-04-21T00:34:53;100056.00;;;9.82;75.79
45323;BME280;31382;50.200;8.674;2023-04-21T00:39:54;100064.06;;;9.82;75.94
45323;BME280;31382;50.200;8.674;2023-04-21T00:44:56;100064.94;;;9.75;76.01
45323;BME280;31382;50.200;8.674;2023-04-21T00:49:57;100045.81;;;9.78;76.08
45323;BME280;31382;50.200;8.674;2023-04-21T00:54:59;100046.47;;;9.80;76.02
45323;BME280;31382;50.200;8.674;2023-04-21T01:00:01;100038.94;;;9.75;75.73
45323;BME280;31382;50.200;8.674;2023-04-21T01:05:06;100046.09;;;9.60;76.07
45323;BME280;31382;50.200;8.674;2023-04-21T01:10:09;100049.75;;;9.36;76.98
45323;BME280;31382;50.200;8.674;2023-04-21T01:15:12;100052.63;;;9.26;76.94
45323;BME280;31382;50.200;8.674;2023-04-21T01:20:14;100048.41;;;9.31;76.40
45323;BME280;31382;50.200;8.674;2023-04-21T01:25:15;100046.75;;;9.30;76.67
45323;BME280;31382;50.200;8.674;2023-04-21T01:30:18;100049.06;;;9.33;76.35
45323;BME280;31382;50.200;8.674;2023-04-21T01:35:19;100055.09;;;9.36;75.97
45323;BME280;31382;50.200;8.674;2023-04-21T01:40:21;100044.25;;;9.29;76.01
45323;BME280;31382;50.200;8.674;2023-04-21T01:45:22;100041.25;;;9.24;76.23
45323;BME280;31382;50.200;8.674;2023-04-21T01:50:24;100040.59;;;9.22;76.28
45323;BME280;31382;50.200;8.674;2023-04-21T01:55:25;100037.28;;;9.11;76.31
45323;BME280;31382;50.200;8.674;2023-04-21T02:00:26;100045.53;;;9.02;76.57
45323;BME280;31382;50.200;8.674;2023-04-21T02:05:28;100040.00;;;9.03;76.98
45323;BME280;31382;50.200;8.674;2023-04-21T02:10:29;100040.34;;;9.08;77.07
45323;BME280;31382;50.200;8.674;2023-04-21T02:15:31;100043.00;;;9.08;77.18
45323;BME280;31382;50.200;8.674;2023-04-21T02:20:32;100046.03;;;9.05;77.18
45323;BME280;31382;50.200;8.674;2023-04-21T02:25:34;100046.19;;;9.04;77.01
45323;BME280;31382;50.200;8.674;2023-04-21T02:30:35;100037.00;;;9.06;77.10
45323;BME280;31382;50.200;8.674;2023-04-21T02:35:36;100046.69;;;9.07;76.82
45323;BME280;31382;50.200;8.674;2023-04-21T02:40:38;100048.59;;;8.99;76.73
45323;BME280;31382;50.200;8.674;2023-04-21T02:45:39;100049.25;;;8.92;77.02
45323;BME280;31382;50.200;8.674;2023-04-21T02:50:41;100051.59;;;8.96;77.18
45323;BME280;31382;50.200;8.674;2023-04-21T02:55:43;100048.09;;;8.95;76.98
45323;BME280;31382;50.200;8.674;2023-04-21T03:00:44;100055.63;;;8.91;76.92
45323;BME280;31382;50.200;8.674;2023-04-21T03:05:46;100065.31;;;8.92;76.96
45323;BME280;31382;50.200;8.674;2023-04-21T03:10:47;100058.47;;;8.90;77.14
45323;BME280;31382;50.200;8.674;2023-04-21T03:15:49;100048.94;;;8.87;77.46
45323;BME280;31382;50.200;8.674;2023-04-21T03:20:51;100043.63;;;8.63;77.50
45323;BME280;31382;50.200;8.674;2023-04-21T03:25:52;100053.69;;;8.61;77.89
45323;BME280;31382;50.200;8.674;2023-04-21T03:30:54;100059.91;;;8.61;77.67
45323;BME280;31382;50.200;8.674;2023-04-21T03:35:55;100066.75;;;8.64;77.88
45323;BME280;31382;50.200;8.674;2023-04-21T03:40:57;100056.69;;;8.74;77.13
45323;BME280;31382;50.200;8.674;2023-04-21T03:45:58;100053.00;;;8.75;77.12
45323;BME280;31382;50.200;8.674;2023-04-21T03:50:59;100055.84;;;8.73;77.28
45323;BME280;31382;50.200;8.674;2023-04-21T03:56:01;100052.16;;;8.74;77.16
45323;BME280;31382;50.200;8.674;2023-04-21T04:01:05;100039.59;;;8.75;77.40
45323;BME280;31382;50.200;8.674;2023-04-21T04:06:07;100044.09;;;8.74;76.91
45323;BME280;31382;50.200;8.674;2023-04-21T04:11:09;100046.63;;;8.76;77.19
45323;BME280;31382;50.200;8.674;2023-04-21T04:16:10;100050.81;;;8.70;76.94
45323;BME280;31382;50.200;8.674;2023-04-21T04:21:11;100044.50;;;8.63;76.58
45323;BME280;31382;50.200;8.674;2023-04-21T04:26:13;100049.50;;;8.66;76.58
45323;BME280;31382;50.200;8.674;2023-04-21T04:31:14;100059.72;;;8.71;76.59
45323;BME280;31382;50.200;8.674;2023-04-21T04:36:17;100054.81;;;8.74;77.31
45323;BME280;31382;50.200;8.674;2023-04-21T04:41:18;100049.31;;;8.76;77.10
45323;BME280;31382;50.200;8.674;2023-04-21T04:46:21;100042.75;;;8.79;77.08
45323;BME280;31382;50.200;8.674;2023-04-21T04:51:22;100051.16;;;8.76;77.13
45323;BME280;31382;50.200;8.674;2023-04-21T04:56:24;100040.97;;;8.71;77.05
45323;BME280;31382;50.200;8.674;2023-04-21T05:01:25;100029.84;;;8.82;77.11
45323;BME280;31382;50.200;8.674;2023-04-21T05:06:30;100028.31;;;8.88;76.89
45323;BME280;31382;50.200;8.674;2023-04-21T05:11:32;100041.19;;;8.92;76.92
45323;BME280;31382;50.200;8.674;2023-04-21T05:16:33;100042.34;;;8.98;77.02
45323;BME280;31382;50.200;8.674;2023-04-21T05:21:35;100050.59;;;8.97;77.15
45323;BME280;31382;50.200;8.674;2023-04-21T05:26:36;100047.88;;;9.05;77.11
45323;BME280;31382;50.200;8.674;2023-04-21T05:31:38;100051.84;;;9.17;77.03
45323;BME280;31382;50.200;8.674;2023-04-21T05:36:43;100038.41;;;9.25;77.05
45323;BME280;31382;50.200;8.674;2023-04-21T05:41:44;100028.47;;;9.34;77.11
45323;BME280;31382;50.200;8.674;2023-04-21T05:46:45;100040.00;;;9.43;77.27
45323;BME280;31382;50.200;8.674;2023-04-21T05:51:47;100045.34;;;9.43;77.65
45323;BME280;31382;50.200;8.674;2023-04-21T05:56:48;100040.91;;;9.58;77.26
45323;BME280;31382;50.200;8.674;2023-04-21T06:01:49;100040.47;;;9.69;77.41
45323;BME280;31382;50.200;8.674;2023-04-21T06:06:51;100042.59;;;9.82;77.51
45323;BME280;31382;50.200;8.674;2023-04-21T06:11:52;100046.25;;;9.89;77.78
45323;BME280;31382;50.200;8.674;2023-04-21T06:16:54;100036.75;;;10.02;77.83
45323;BME280;31382;50.200;8.674;2023-04-21T06:21:56;100040.59;;;10.22;77.88
45323;BME280;31382;50.200;8.674;2023-04-21T06:26:57;100029.75;;;10.39;77.75
45323;BME280;31382;50.200;8.674;2023-04-21T06:32:08;100030.22;;;10.57;77.93
45323;BME280;31382;50.200;8.674;2023-04-21T06:37:10;100029.84;;;10.75;77.89
45323;BME280;31382;50.200;8.674;2023-04-21T06:42:11;100038.31;;;10.87;78.33
45323;BME280;31382;50.200;8.674;2023-04-21T06:47:13;100043.84;;;11.15;77.75
45323;BME280;31382;50.200;8.674;2023-04-21T06:52:16;100042.44;;;11.34;78.15
45323;BME280;31382;50.200;8.674;2023-04-21T06:57:20;100035.34;;;11.48;78.09
45323;BME280;31382;50.200;8.674;2023-04-21T07:02:21;100042.81;;;11.67;77.74
45323;BME280;31382;50.200;8.674;2023-04-21T07:07:23;100048.03;;;11.90;77.80
45323;BME280;31382;50.200;8.674;2023-04-21T07:12:24;100041.63;;;12.13;77.48
45323;BME280;31382;50.200;8.674;2023-04-21T07:17:26;100029.28;;;12.25;77.70
45323;BME280;31382;50.200;8.674;2023-04-21T07:22:27;100035.00;;;12.44;77.18
45323;BME280;31382;50.200;8.674;2023-04-21T07:27:29;100045.47;;;12.54;77.14
45323;BME280;31382;50.200;8.674;2023-04-21T07:32:30;100041.84;;;12.68;76.98
45323;BME280;31382;50.200;8.674;2023-04-21T07:37:32;100041.34;;;12.86;76.87
45323;BME280;31382;50.200;8.674;2023-04-21T07:42:34;100039.53;;;13.00;76.51
45323;BME280;31382;50.200;8.674;2023-04-21T07:47:35;100054.41;;;12.89;76.79
45323;BME280;31382;50.200;8.674;2023-04-21T07:52:37;100040.03;;;13.17;76.42
45323;BME280;31382;50.200;8.674;2023-04-21T07:57:38;100040.56;;;13.40;75.85
45323;BME280;31382;50.200;8.674;2023-04-21T08:02:40;100042.69;;;13.58;75.91
45323;BME280;31382;50.200;8.674;2023-04-21T08:07:42;100029.88;;;13.74;75.37
45323;BME280;31382;50.200;8.674;2023-04-21T08:12:43;100028.41;;;13.78;75.61
45323;BME280;31382;50.200;8.674;2023-04-21T08:17:45;100012.44;;;14.03;74.88
45323;BME280;31382;50.200;8.674;2023-04-21T08:22:46;100014.75;;;14.13;74.69
45323;BME280;31382;50.200;8.674;2023-04-21T08:27:48;100021.59;;;14.28;74.27
45323;BME280;31382;50.200;8.674;2023-04-21T08:32:50;100023.88;;;14.38;74.12
45323;BME280;31382;50.200;8.674;2023-04-21T08:37:51;100027.19;;;14.47;73.70
45323;BME280;31382;50.200;8.674;2023-04-21T08:42:53;100022.41;;;14.76;73.27
45323;BME280;31382;50.200;8.674;2023-04-21T08:47:59;100020.06;;;14.93;73.20
45323;BME280;31382;50.200;8.674;2023-04-21T08:53:01;100007.53;;;15.12;72.63
45323;BME280;31382;50.200;8.674;2023-04-21T08:58:03;100005.66;;;15.05;72.47
45323;BME280;31382;50.200;8.674;2023-04-21T09:03:05;100028.16;;;15.06;72.47
45323;BME280;31382;50.200;8.674;2023-04-21T09:08:24;100019.31;;;15.31;72.01
45323;BME280;31382;50.200;8.674;2023-04-21T09:13:36;100027.16;;;15.45;71.22
45323;BME280;31382;50.200;8.674;2023-04-21T09:18:38;100018.16;;;15.52;71.67
45323;BME280;31382;50.200;8.674;2023-04-21T09:23:51;100019.75;;;15.73;71.05
45323;BME280;31382;50.200;8.674;2023-04-21T09:28:52;100019.66;;;15.86;71.50
45323;BME280;31382;50.200;8.674;2023-04-21T09:33:56;100025.22;;;15.98;70.90
45323;BME280;31382;50.200;8.674;2023-04-21T09:39:02;100025.47;;;16.21;70.33
45323;BME280;31382;50.200;8.674;2023-04-21T09:44:07;100032.72;;;16.28;70.43
45323;BME280;31382;50.200;8.674;2023-04-21T09:49:10;100030.09;;;16.39;70.21
45323;BME280;31382;50.200;8.674;2023-04-21T09:54:19;100018.00;;;16.60;69.80
45323;BME280;31382;50.200;8.674;2023-04-21T09:59:37;100023.41;;;16.85;69.67
45323;BME280;31382;50.200;8.674;2023-04-21T10:04:41;100014.22;;;17.05;69.65
45323;BME280;31382;50.200;8.674;2023-04-21T10:09:48;100013.59;;;17.21;69.21
45323;BME280;31382;50.200;8.674;2023-04-21T10:14:52;100010.44;;;17.55;68.71
45323;BME280;31382;50.200;8.674;2023-04-21T10:19:56;100004.13;;;17.73;67.94
45323;BME280;31382;50.200;8.674;2023-04-21T10:24:59;99985.84;;;17.80;67.62
45323;BME280;31382;50.200;8.674;2023-04-21T10:30:21;99981.66;;;17.96;67.38
45323;BME280;31382;50.200;8.674;2023-04-21T10:35:23;99983.19;;;18.03;66.96
45323;BME280;31382;50.200;8.674;2023-04-21T10:40:34;99981.53;;;18.14;65.89
45323;BME280;31382;50.200;8.674;2023-04-21T10:45:39;99971.38;;;18.33;65.44
45323;BME280;31382;50.200;8.674;2023-04-21T10:50:41;99972.56;;;18.37;65.03
45323;BME280;31382;50.200;8.674;2023-04-21T10:55:47;99968.31;;;18.41;64.71
45323;BME280;31382;50.200;8.674;2023-04-21T11:00:53;99973.53;;;18.43;64.69
45323;BME280;31382;50.200;8.674;2023-04-21T11:05:55;99975.75;;;18.46;65.17
45323;BME280;31382;50.200;8.674;2023-04-21T11:10:57;99976.09;;;18.50;64.58
45323;BME280;31382;50.200;8.674;2023-04-21T11:16:04;99969.72;;;18.56;63.66
45323;BME280;31382;50.200;8.674;2023-04-21T11:21:16;99956.13;;;18.32;63.91
45323;BME280;31382;50.200;8.674;2023-04-21T11:26:31;99958.25;;;18.42;63.48
45323;BME280;31382;50.200;8.674;2023-04-21T11:31:35;99949.78;;;18.79;63.07
45323;BME280;31382;50.200;8.674;2023-04-21T11:36:42;99954.91;;;18.87;63.02
45323;BME280;31382;50.200;8.674;2023-04-21T11:41:45;99938.47;;;18.82;63.18
45323;BME280;31382;50.200;8.674;2023-04-21T11:46:46;99940.50;;;19.03;62.84
45323;BME280;31382;50.200;8.674;2023-04-21T11:51:48;99937.13;;;19.25;62.17
45323;BME280;31382;50.200;8.674;2023-04-21T11:56:50;99932.94;;;19.34;62.10
45323;BME280;31382;50.200;8.674;2023-04-21T12:01:54;99930.50;;;19.50;61.58
45323;BME280;31382;50.200;8.674;2023-04-21T12:07:00;99926.44;;;19.52;61.27
45323;BME280;31382;50.200;8.674;2023-04-21T12:12:02;99926.56;;;19.57;61.72
45323;BME280;31382;50.200;8.674;2023-04-21T12:17:05;99921.22;;;19.79;60.76
45323;BME280;31382;50.200;8.674;2023-04-21T12:22:11;99918.75;;;19.95;60.13
45323;BME280;31382;50.200;8.674;2023-04-21T12:27:13;99907.41;;;20.03;59.90
45323;BME280;31382;50.200;8.674;2023-04-21T12:32:14;99907.91;;;20.00;59.41
45323;BME280;31382;50.200;8.674;2023-04-21T12:37:17;99897.88;;;20.06;60.60
45323;BME280;31382;50.200;8.674;2023-04-21T12:42:18;99900.28;;;20.19;59.11
45323;BME280;31382;50.200;8.674;2023-04-21T12:47:20;99895.88;;;20.18;58.75
45323;BME280;31382;50.200;8.674;2023-04-21T12:52:21;99893.00;;;20.25;58.55
45323;BME280;31382;50.200;8.674;2023-04-21T12:57:22;99889.72;;;20.45;58.10
45323;BME280;31382;50.200;8.674;2023-04-21T13:02:24;99874.41;;;20.44;58.54
45323;BME280;31382;50.200;8.674;2023-04-21T13:07:25;99873.44;;;21.21;57.09
45323;BME280;31382;50.200;8.674;2023-04-21T13:12:32;99872.25;;;21.71;56.31
45323;BME280;31382;50.200;8.674;2023-04-21T13:17:33;99877.66;;;21.98;56.21
45323;BME280;31382;50.200;8.674;2023-04-21T13:22:34;99852.81;;;22.10;55.02
45323;BME280;31382;50.200;8.674;2023-04-21T13:27:36;99844.00;;;22.46;54.41
45323;BME280;31382;50.200;8.674;2023-04-21T13:32:40;99837.22;;;22.64;54.05
45323;BME280;31382;50.200;8.674;2023-04-21T13:37:42;99826.88;;;22.96;52.77
45323;BME280;31382;50.200;8.674;2023-04-21T13:42:43;99822.31;;;23.23;52.80
45323;BME280;31382;50.200;8.674;2023-04-21T13:47:45;99814.59;;;23.71;52.14
45323;BME280;31382;50.200;8.674;2023-04-21T13:52:46;99816.13;;;24.33;51.19
45323;BME280;31382;50.200;8.674;2023-04-21T13:57:48;99790.81;;;24.97;50.48
45323;BME280;31382;50.200;8.674;2023-04-21T14:02:49;99795.56;;;25.60;49.48
45323;BME280;31382;50.200;8.674;2023-04-21T14:07:51;99782.63;;;26.14;48.25
45323;BME280;31382;50.200;8.674;2023-04-21T14:12:53;99770.13;;;26.21;47.58
45323;BME280;31382;50.200;8.674;2023-04-21T14:17:54;99747.88;;;26.80;47.01
45323;BME280;31382;50.200;8.674;2023-04-21T14:22:56;99739.59;;;27.92;46.35
45323;BME280;31382;50.200;8.674;2023-04-21T14:27:58;99734.38;;;29.59;44.43
45323;BME280;31382;50.200;8.674;2023-04-21T14:33:01;99720.66;;;31.12;39.83
45323;BME280;31382;50.200;8.674;2023-04-21T14:38:03;99719.66;;;31.26;38.35
45323;BME280;31382;50.200;8.674;2023-04-21T14:43:04;99707.13;;;30.84;37.62
45323;BME280;31382;50.200;8.674;2023-04-21T14:48:06;99702.25;;;29.80;37.45
45323;BME280;31382;50.200;8.674;2023-04-21T14:53:07;99697.75;;;29.08;38.28
45323;BME280;31382;50.200;8.674;2023-04-21T14:58:09;99688.94;;;28.61;38.37
45323;BME280;31382;50.200;8.674;2023-04-21T15:03:10;99682.34;;;28.93;38.12
45323;BME280;31382;50.200;8.674;2023-04-21T15:08:12;99673.97;;;29.30;37.37
45323;BME280;31382;50.200;8.674;2023-04-21T15:13:18;99672.69;;;29.36;36.92
45323;BME280;31382;50.200;8.674;2023-04-21T15:18:19;99668.88;;;29.00;36.62
45323;BME280;31382;50.200;8.674;2023-04-21T15:23:21;99658.56;;;28.92;36.93
45323;BME280;31382;50.200;8.674;2023-04-21T15:28:22;99649.97;;;28.71;36.77
45323;BME280;31382;50.200;8.674;2023-04-21T15:33:24;99644.44;;;27.98;36.96
45323;BME280;31382;50.200;8.674;2023-04-21T15:38:25;99640.97;;;27.65;37.46
45323;BME280;31382;50.200;8.674;2023-04-21T15:43:27;99629.88;;;27.09;38.97
45323;BME280;31382;50.200;8.674;2023-04-21T15:48:28;99628.28;;;27.03;38.98
45323;BME280;31382;50.200;8.674;2023-04-21T15:53:32;99625.88;;;27.16;38.91
45323;BME280;31382;50.200;8.674;2023-04-21T15:58:34;99632.38;;;26.92;39.88
45323;BME280;31382;50.200;8.674;2023-04-21T16:03:35;99622.94;;;26.79;39.51
45323;BME280;31382;50.200;8.674;2023-04-21T16:08:37;99608.34;;;26.79;40.11
45323;BME280;31382;50.200;8.674;2023-04-21T16:13:38;99593.88;;;27.01;39.89
45323;BME280;31382;50.200;8.674;2023-04-21T16:18:40;99585.81;;;27.18;39.93
45323;BME280;31382;50.200;8.674;2023-04-21T16:23:41;99582.59;;;27.30;39.96
45323;BME280;31382;50.200;8.674;2023-04-21T16:28:43;99558.47;;;27.36;39.59
45323;BME280;31382;50.200;8.674;2023-04-21T16:33:44;99562.38;;;27.85;39.05
45323;BME280;31382;50.200;8.674;2023-04-21T16:38:46;99564.63;;;27.83;38.96
45323;BME280;31382;50.200;8.674;2023-04-21T16:43:47;99563.22;;;27.72;38.37
45323;BME280;31382;50.200;8.674;2023-04-21T16:48:49;99552.28;;;27.66;38.77
45323;BME280;31382;50.200;8.674;2023-04-21T16:53:50;99553.28;;;27.84;38.54
45323;BME280;31382;50.200;8.674;2023-04-21T16:58:52;99556.25;;;27.74;38.54
45323;BME280;31382;50.200;8.674;2023-04-21T17:03:53;99546.44;;;27.68;38.68
45323;BME280;31382;50.200;8.674;2023-04-21T17:08:55;99559.16;;;27.55;39.13
45323;BME280;31382;50.200;8.674;2023-04-21T17:14:00;99565.50;;;27.42;39.12
45323;BME280;31382;50.200;8.674;2023-04-21T17:19:01;99563.44;;;27.06;39.82
45323;BME280;31382;50.200;8.674;2023-04-21T17:24:03;99572.44;;;26.46;40.75
45323;BME280;31382;50.200;8.674;2023-04-21T17:29:04;99578.44;;;25.77;41.42
45323;BME280;31382;50.200;8.674;2023-04-21T17:34:06;99577.22;;;25.16;42.84
45323;BME280;31382;50.200;8.674;2023-04-21T17:39:08;99582.75;;;24.52;43.19
45323;BME280;31382;50.200;8.674;2023-04-21T17:44:10;99587.53;;;23.97;44.74
45323;BME280;31382;50.200;8.674;2023-04-21T17:49:12;99595.19;;;23.35;45.41
45323;BME280;31382;50.200;8.674;2023-04-21T17:54:13;99596.38;;;22.72;46.31
45323;BME280;31382;50.200;8.674;2023-04-21T17:59:14;99593.06;;;22.29;46.88
45323;BME280;31382;50.200;8.674;2023-04-21T18:04:16;99590.28;;;21.98;47.17
45323;BME280;31382;50.200;8.674;2023-04-21T18:09:18;99581.16;;;21.67;48.30
45323;BME280;31382;50.200;8.674;2023-04-21T18:14:21;99591.41;;;21.39;48.84
45323;BME280;31382;50.200;8.674;2023-04-21T18:19:22;99618.94;;;20.80;48.70
45323;BME280;31382;50.200;8.674;2023-04-21T18:24:23;99618.84;;;20.15;47.94
45323;BME280;31382;50.200;8.674;2023-04-21T18:29:25;99620.88;;;19.76;47.78
45323;BME280;31382;50.200;8.674;2023-04-21T18:34:26;99621.91;;;19.31;48.01
45323;BME280;31382;50.200;8.674;2023-04-21T18:39:28;99624.44;;;18.81;48.81
45323;BME280;31382;50.200;8.674;2023-04-21T18:44:29;99619.06;;;18.53;49.90
45323;BME280;31382;50.200;8.674;2023-04-21T18:49:31;99617.97;;;18.37;50.67
45323;BME280;31382;50.200;8.674;2023-04-21T18:54:33;99628.34;;;18.23;51.34
45323;BME280;31382;50.200;8.674;2023-04-21T18:59:35;99629.38;;;18.05;52.00
45323;BME280;31382;50.200;8.674;2023-04-21T19:04:37;99630.88;;;17.84;52.66
45323;BME280;31382;50.200;8.674;2023-04-21T19:09:38;99628.00;;;17.79;53.01
45323;BME280;31382;50.200;8.674;2023-04-21T19:14:40;99638.88;;;17.79;53.04
45323;BME280;31382;50.200;8.674;2023-04-21T19:19:47;99632.84;;;17.89;53.02
45323;BME280;31382;50.200;8.674;2023-04-21T19:24:49;99636.88;;;17.86;53.08
45323;BME280;31382;50.200;8.674;2023-04-21T19:29:51;99627.06;;;17.85;53.36
45323;BME280;31382;50.200;8.674;2023-04-21T19:34:52;99617.69;;;17.93;53.50
45323;BME280;31382;50.200;8.674;2023-04-21T19:39:54;99622.47;;;17.86;53.93
45323;BME280;31382;50.200;8.674;2023-04-21T19:44:56;99624.63;;;17.60;54.42
45323;BME280;31382;50.200;8.674;2023-04-21T19:49:57;99628.38;;;17.71;54.14
45323;BME280;31382;50.200;8.674;2023-04-21T19:54:58;99633.19;;;17.80;54.28
45323;BME280;31382;50.200;8.674;2023-04-21T20:00:00;99643.03;;;17.81;54.85
45323;BME280;31382;50.200;8.674;2023-04-21T20:05:02;99648.34;;;17.76;55.50
45323;BME280;31382;50.200;8.674;2023-04-21T20:10:04;99637.63;;;17.70;55.63
45323;BME280;31382;50.200;8.674;2023-04-21T20:15:06;99638.59;;;17.63;56.14
45323;BME280;31382;50.200;8.674;2023-04-21T20:20:08;99644.13;;;17.57;56.63
45323;BME280;31382;50.200;8.674;2023-04-21T20:25:10;99650.41;;;17.45;56.80
45323;BME280;31382;50.200;8.674;2023-04-21T20:30:13;99654.09;;;17.28;57.27
45323;BME280;31382;50.200;8.674;2023-04-21T20:35:14;99654.81;;;17.11;57.70
45323;BME280;31382;50.200;8.674;2023-04-21T20:40:17;99713.56;;;16.82;58.72
45323;BME280;31382;50.200;8.674;2023-04-21T20:45:18;99695.44;;;16.64;59.13
45323;BME280;31382;50.200;8.674;2023-04-21T20:50:20;99694.00;;;16.50;58.97
45323;BME280;31382;50.200;8.674;2023-04-21T20:55:23;99685.22;;;16.36;59.18
45323;BME280;31382;50.200;8.674;2023-04-21T21:00:25;99688.47;;;16.26;59.31
45323;BME280;31382;50.200;8.674;2023-04-21T21:05:26;99673.34;;;16.18;59.53
45323;BME280;31382;50.200;8.674;2023-04-21T21:10:30;99667.19;;;16.11;59.55
45323;BME280;31382;50.200;8.674;2023-04-21T21:15:31;99674.97;;;16.08;59.88
45323;BME280;31382;50.200;8.674;2023-04-21T21:20:34;99676.53;;;15.97;60.11
45323;BME280;31382;50.200;8.674;2023-04-21T21:25:35;99662.56;;;15.81;60.64
45323;BME280;31382;50.200;8.674;2023-04-21T21:30:36;99654.50;;;15.75;60.82
45323;BME280;31382;50.200;8.674;2023-04-21T21:35:38;99674.38;;;15.50;61.23
45323;BME280;31382;50.200;8.674;2023-04-21T21:40:39;99684.41;;;15.24;61.94
45323;BME280;31382;50.200;8.674;2023-04-21T21:45:41;99680.91;;;15.42;61.60
45323;BME280;31382;50.200;8.674;2023-04-21T21:50:42;99678.34;;;15.47;61.55
45323;BME280;31382;50.200;8.674;2023-04-21T21:55:43;99671.25;;;15.28;62.08
45323;BME280;31382;50.200;8.674;2023-04-21T22:00:45;99677.34;;;15.23;62.46
45323;BME280;31382;50.200;8.674;2023-04-21T22:05:51;99671.66;;;15.06;62.66
45323;BME280;31382;50.200;8.674;2023-04-21T22:10:53;99670.78;;;14.87;63.10
45323;BME280;31382;50.200;8.674;2023-04-21T22:15:54;99672.81;;;14.92;63.12
45323;BME280;31382;50.200;8.674;2023-04-21T22:20:56;99681.66;;;14.81;63.36
45323;BME280;31382;50.200;8.674;2023-04-21T22:25:59;99688.34;;;14.78;63.34
45323;BME280;31382;50.200;8.674;2023-04-21T22:31:00;99684.81;;;14.78;63.77
45323;BME280;31382;50.200;8.674;2023-04-21T22:36:02;99700.47;;;14.69;63.67
45323;BME280;31382;50.200;8.674;2023-04-21T22:41:03;99692.63;;;14.61;64.19
45323;BME280;31382;50.200;8.674;2023-04-21T22:46:05;99698.50;;;14.58;63.84
45323;BME280;31382;50.200;8.674;2023-04-21T22:51:07;99700.19;;;14.45;64.49
45323;BME280;31382;50.200;8.674;2023-04-21T22:56:08;99708.81;;;14.29;65.02
45323;BME280;31382;50.200;8.674;2023-04-21T23:01:09;99700.47;;;14.31;64.91
45323;BME280;31382;50.200;8.674;2023-04-21T23:06:11;99699.66;;;14.30;64.96
45323;BME280;31382;50.200;8.674;2023-04-21T23:11:13;99701.34;;;14.24;65.17
45323;BME280;31382;50.200;8.674;2023-04-21T23:16:14;99700.75;;;14.22;65.60
45323;BME280;31382;50.200;8.674;2023-04-21T23:21:16;99700.53;;;14.17;65.44
45323;BME280;31382;50.200;8.674;2023-04-21T23:26:18;99706.00;;;14.11;65.61
45323;BME280;31382;50.200;8.674;2023-04-21T23:31:19;99702.22;;;14.12;65.75
45323;BME280;31382;50.200;8.674;2023-04-21T23:36:20;99700.75;;;14.16;65.78
45323;BME280;31382;50.200;8.674;2023-04-21T23:41:22;99701.00;;;14.14;65.69
45323;BME280;31382;50.200;8.674;2023-04-21T23:46:23;99700.75;;;14.16;65.94
45323;BME280;31382;50.200;8.674;2023-04-21T23:51:25;99700.19;;;14.07;66.21
45323;BME280;31382;50.200;8.674;2023-04-21T23:56:27;99694.16;;;14.05;66.45
